Fort Greely, Alaska
Current Conditions -  °F | °C
As of 3:53 AM on Sunday 23 Nov 2014 (Local Time) from PABI Reporting Station
Clear Clear  
Wind Chill: -7°   Ceiling: Unl
Heat Index: 11°   Visibility: 10mi
Dew Point:   Wind: 18mph
Humidity: 67%   Direction: 110°ESE
Pressure: 29.41"   Gusts: NA
Location:  63.98°N, 145.76°W
Report Text: PABI 231253Z AUTO 11016KT 10SM CLR M12/M17 A2941 RMK AO2 SLP999 T11171167 TSNO
Loading
Personal Weather Stations






























Interactive Weather Map New forecast layout! Learn more

10-Day Weather Forecast

Advertisements
Track Severe Weather on mobile